LJLJLDPL

Guest
Details From LJLJ - LJUBLJANA
To LDPL - Pula
Flight Number -
Tags generated
Created
Modified
Stats Distance 83 nm / 154 km
Max Altitude 9,000 ft / 2,743 m
Waypoints 5
Social Downloads 2
Likes 0
Share VATSIM

Download

Looking for another format? Having issues loading an existing format? Contact us
Advertisement - Login to hide

Notes

Basic altitude profile: - Ascent Rate: 2500ft/min - Ascent Speed: 250kts - Cruise Altitude: 35000ft - Cruise Speed: 420kts - Descent Rate: 1500ft/min - Descent Speed: 250kts Options: - Use NATs: yes - Use PACOTS: yes - Use low airways: yes - Use high airways: yes

Route

LJLJ ILB L141 PUL LDPL

ID Type Via Altitude Latitude Longitude Leg Dist Tot Dist Heading (true) Name
O LJLJ APT - 0 ft / 0 m 46.22368˚ 14.45761˚ - 0 nm - LJUBLJANA
ILB VOR - 9,000 ft / 2,743 m 45.56559˚ 14.17086˚ 41 nm 41 nm 197° / 197° BISTRICA VOR-DME
GIRDA FIX L141 (AWY-LO) 8,000 ft / 2,438 m 45.47557˚ 14.13395˚ 5 nm 46 nm 196° / 196° -
PUL VOR L141 (AWY-LO) 7,000 ft / 2,134 m 44.89237˚ 13.91813˚ 36 nm 83 nm 195° / 195° PULA VOR-DME
O LDPL APT - 0 ft / 0 m 44.89353˚ 13.92216˚ 0 nm 83 nm 68° / 68° Pula

Altitude Profile

Advertisement - Login to hide

LJLJ

Details ICAO LJLJ (LJU)
Name LJUBLJANA
Region Slovenia
Timezone Europe/Ljubljana (UTC+2.0)
Stats Elevation 1,273 ft / 388 m (AMSL)
Location 46.223685° 14.457608°
Runways 1
Magnetic Variation 3.712° E

METAR

LJLJ 250800Z VRB01KT 9999 FEW050 21/15 Q1017 NOSIG

Decode

TAF

TAF LJLJ 250200Z 2503/2603 28003KT 9999 FEW050 SCT130 TEMPO 2503/2521 SHRA SCT035TCU BKN050 BECMG 2508/2510 12005KT PROB40 TEMPO 2509/2518 VRB10G20KT 5000 TSRA SCT030CB BKN050 BECMG 2519/2522 29003KT

Decode

Departure Runways

ID Width Length Bearing (true) Bearing (mag) Surface Threshold Offset Overrun Length
13 148 ft / 45 m 10,811 ft / 3,295 m 126.47° 122.76° Asphalt 0 ft / 0 m 0 ft / 0 m
31 148 ft / 45 m 10,811 ft / 3,295 m 306.49° 302.78° Asphalt 0 ft / 0 m 0 ft / 0 m

LDPL

Details ICAO LDPL (PUY)
Name Pula
Region Croatia
Timezone Europe/Zagreb (UTC+2.0)
Stats Elevation 274 ft / 84 m (AMSL)
Location 44.893531° 13.922156°
Runways 1
Magnetic Variation 3.523° E

METAR

LDPL 250800Z 05005KT 020V090 CAVOK 25/16 Q1015 NOSIG

Decode

TAF

TAF LDPL 250525Z 2506/2606 VRB02KT CAVOK TX26/2512Z TN17/2604Z BECMG 2509/2511 28007KT BECMG 2516/2518 VRB02KT BECMG 2519/2521 06008KT

Decode

Destination Runways

ID Width Length Bearing (true) Bearing (mag) Surface Threshold Offset Overrun Length
09 148 ft / 45 m 9,601 ft / 2,926 m 88.24° 84.72° Asphalt 250 ft / 76 m 0 ft / 0 m
27 148 ft / 45 m 9,601 ft / 2,926 m 268.27° 264.75° Asphalt 250 ft / 76 m 0 ft / 0 m

Approach Navaids

Runway Type Ident Frequency Range Bearing (true) Bearing (mag) Slope Elevation
27 Localiser IPU 111.50 MHz 25 nm / 46 km 268.28° 264.76° - 157 ft / 48 m (AMSL)
27 Glidescope IPU 111.50 MHz 25 nm / 46 km 268.28° 264.76° 3.20° 243 ft / 74 m (AMSL)

Popular Alternatives